createdAt,value
2018-10-18T00:00:58.203Z,101773.77
2018-10-18T00:03:26.898Z,101775.80
2018-10-18T00:05:55.478Z,101771.56
2018-10-18T00:08:24.068Z,101770.66
2018-10-18T00:10:52.640Z,101778.48
2018-10-18T00:13:21.246Z,101776.42
2018-10-18T00:15:49.867Z,101775.38
2018-10-18T00:18:18.492Z,101779.30
2018-10-18T00:20:47.067Z,101778.27
2018-10-18T00:23:15.695Z,101786.91
2018-10-18T00:25:44.318Z,101785.69
2018-10-18T00:28:12.929Z,101782.08
2018-10-18T00:30:41.530Z,101787.31
2018-10-18T00:33:10.120Z,101787.98
2018-10-18T00:35:38.739Z,101781.05
2018-10-18T00:38:07.456Z,101793.95
2018-10-18T00:40:36.000Z,101791.94
2018-10-18T00:43:04.844Z,101790.58
2018-10-18T00:45:33.449Z,101803.15
2018-10-18T00:48:02.151Z,101801.98
2018-10-18T00:50:30.719Z,101797.50
2018-10-18T00:52:59.292Z,101791.21
2018-10-18T00:55:27.911Z,101794.64
2018-10-18T00:57:56.489Z,101792.45
2018-10-18T01:00:27.186Z,101794.66
2018-10-18T01:02:55.750Z,101791.94
2018-10-18T01:05:34.549Z,101791.91
2018-10-18T01:08:03.196Z,101797.14
2018-10-18T01:10:31.785Z,101805.95
2018-10-18T01:13:00.385Z,101806.30
2018-10-18T01:15:29.004Z,101808.59
2018-10-18T01:17:57.604Z,101812.14
2018-10-18T01:20:26.213Z,101811.95
2018-10-18T01:22:54.797Z,101808.69
2018-10-18T01:25:23.420Z,101804.25
2018-10-18T01:27:52.035Z,101806.41
2018-10-18T01:30:20.654Z,101800.44
2018-10-18T01:32:49.244Z,101805.38
2018-10-18T01:35:17.871Z,101798.64
2018-10-18T01:37:46.536Z,101809.64
2018-10-18T01:40:15.135Z,101799.87
2018-10-18T01:42:43.707Z,101799.61
2018-10-18T01:45:12.324Z,101801.73
2018-10-18T01:47:40.900Z,101798.39
2018-10-18T01:50:10.214Z,101796.74
2018-10-18T01:52:38.794Z,101799.52
2018-10-18T01:55:08.062Z,101803.30
2018-10-18T01:57:36.697Z,101806.02
2018-10-18T02:00:06.329Z,101807.43
2018-10-18T02:02:34.949Z,101807.44
2018-10-18T02:05:03.560Z,101812.08
2018-10-18T02:07:32.141Z,101818.88
2018-10-18T02:10:00.768Z,101814.45
2018-10-18T02:12:29.353Z,101813.77
2018-10-18T02:14:57.967Z,101808.89
2018-10-18T02:17:26.593Z,101807.99
2018-10-18T02:19:55.205Z,101806.63
2018-10-18T02:22:23.826Z,101805.39
2018-10-18T02:24:52.459Z,101805.16
2018-10-18T02:27:21.091Z,101814.76
2018-10-18T02:29:49.687Z,101815.52
2018-10-18T02:32:18.331Z,101815.47
2018-10-18T02:34:46.944Z,101819.04
2018-10-18T02:37:15.583Z,101819.36
2018-10-18T02:39:44.178Z,101822.20
2018-10-18T02:42:12.866Z,101816.16
2018-10-18T02:44:41.435Z,101818.20
2018-10-18T02:47:10.055Z,101819.17
2018-10-18T02:49:38.643Z,101816.95
2018-10-18T02:52:07.288Z,101820.17
2018-10-18T02:54:35.878Z,101816.86
2018-10-18T02:57:04.499Z,101818.06
2018-10-18T02:59:33.083Z,101813.75
2018-10-18T03:02:01.708Z,101813.70
2018-10-18T03:04:30.303Z,101813.33
2018-10-18T03:06:58.924Z,101814.17
2018-10-18T03:09:27.507Z,101811.41
2018-10-18T03:11:56.143Z,101805.06
2018-10-18T03:14:24.755Z,101808.47
2018-10-18T03:16:53.392Z,101809.84
2018-10-18T03:19:22.070Z,101820.27
2018-10-18T03:21:50.668Z,101819.90
2018-10-18T03:24:19.444Z,101822.61
2018-10-18T03:26:48.013Z,101822.61
2018-10-18T03:29:16.599Z,101822.09
2018-10-18T03:31:45.209Z,101825.67
2018-10-18T03:34:13.853Z,101818.45
2018-10-18T03:36:42.455Z,101820.50
2018-10-18T03:39:11.923Z,101822.86
2018-10-18T03:41:40.575Z,101820.13
2018-10-18T03:44:09.160Z,101819.59
2018-10-18T03:46:37.789Z,101815.28
2018-10-18T03:49:06.423Z,101817.65
2018-10-18T03:51:35.469Z,101818.64
2018-10-18T03:54:04.119Z,101831.81
2018-10-18T03:56:32.740Z,101834.34
2018-10-18T03:59:01.318Z,101833.97
2018-10-18T04:01:29.929Z,101835.02
2018-10-18T04:03:58.502Z,101846.13
2018-10-18T04:06:27.117Z,101847.96
2018-10-18T04:08:55.711Z,101852.39
2018-10-18T04:11:24.325Z,101852.08
2018-10-18T04:13:52.903Z,101857.55
2018-10-18T04:16:21.529Z,101851.87
2018-10-18T04:18:50.125Z,101854.61
2018-10-18T04:21:18.750Z,101849.66
2018-10-18T04:23:47.345Z,101848.02
2018-10-18T04:26:15.971Z,101846.48
2018-10-18T04:28:44.567Z,101852.80
2018-10-18T04:31:13.183Z,101852.48
2018-10-18T04:33:41.780Z,101851.23
2018-10-18T04:36:10.461Z,101854.32
2018-10-18T04:38:39.035Z,101852.37
2018-10-18T04:41:07.633Z,101853.21
2018-10-18T04:43:36.258Z,101848.05
2018-10-18T04:46:04.893Z,101850.27
2018-10-18T04:48:33.644Z,101847.88
2018-10-18T04:51:02.131Z,101846.16
2018-10-18T04:53:30.749Z,101852.52
2018-10-18T04:55:59.328Z,101847.14
2018-10-18T04:58:27.950Z,101846.23
2018-10-18T05:00:56.576Z,101846.23
2018-10-18T05:03:25.187Z,101845.92
2018-10-18T05:05:55.184Z,101850.35
2018-10-18T05:08:24.909Z,101849.66
2018-10-18T05:10:53.829Z,101859.25
2018-10-18T05:13:22.432Z,101855.66
2018-10-18T05:15:51.085Z,101857.03
2018-10-18T05:18:20.046Z,101859.42
2018-10-18T05:20:48.952Z,101861.52
2018-10-18T05:23:17.564Z,101870.91
2018-10-18T05:25:47.022Z,101862.57
2018-10-18T05:28:15.643Z,101861.69
2018-10-18T05:30:44.228Z,101858.63
2018-10-18T05:33:12.854Z,101867.17
2018-10-18T05:35:41.440Z,101876.39
2018-10-18T05:38:10.085Z,101869.54
2018-10-18T05:40:38.724Z,101879.48
2018-10-18T05:43:07.396Z,101882.55
2018-10-18T05:45:35.981Z,101884.23
2018-10-18T05:48:04.606Z,101892.45
2018-10-18T05:50:33.216Z,101891.41
2018-10-18T05:53:01.908Z,101892.60
2018-10-18T05:55:30.501Z,101893.97
2018-10-18T05:57:59.105Z,101895.14
2018-10-18T06:00:27.737Z,101897.18
2018-10-18T06:02:58.127Z,101906.05
2018-10-18T06:05:26.817Z,101907.23
2018-10-18T06:07:55.411Z,101907.36
2018-10-18T06:10:35.217Z,101908.03
2018-10-18T06:13:03.812Z,101914.67
2018-10-18T06:15:32.389Z,101928.20
2018-10-18T06:18:00.966Z,101927.48
2018-10-18T06:20:29.593Z,101932.06
2018-10-18T06:22:58.339Z,101933.43
2018-10-18T06:25:26.836Z,101936.31
2018-10-18T06:27:55.416Z,101934.05
2018-10-18T06:30:24.061Z,101936.78
2018-10-18T06:32:52.658Z,101935.41
2018-10-18T06:35:21.317Z,101939.98
2018-10-18T06:37:49.937Z,101937.04
2018-10-18T06:40:19.076Z,101944.05
2018-10-18T06:42:47.693Z,101947.45
2018-10-18T06:45:17.757Z,101947.92
2018-10-18T06:47:46.480Z,101945.64
2018-10-18T06:50:16.447Z,101952.82
2018-10-18T06:52:45.064Z,101955.18
2018-10-18T06:55:13.736Z,101952.58
2018-10-18T06:57:43.012Z,101947.03
2018-10-18T07:00:14.633Z,101949.96
2018-10-18T07:02:44.004Z,101947.09
2018-10-18T07:05:13.775Z,101949.38
2018-10-18T07:07:43.027Z,101952.96
2018-10-18T07:10:11.615Z,101946.73
2018-10-18T07:12:40.757Z,101954.83
2018-10-18T07:15:10.545Z,101959.83
2018-10-18T07:17:40.297Z,101965.25
2018-10-18T07:20:09.404Z,101962.43
2018-10-18T07:22:38.855Z,101961.30
2018-10-18T07:25:09.595Z,101968.31
2018-10-18T07:27:38.619Z,101966.55
2018-10-18T07:30:08.596Z,101966.80
2018-10-18T07:32:37.261Z,101968.77
2018-10-18T07:35:07.148Z,101971.75
2018-10-18T07:37:35.753Z,101972.48
2018-10-18T07:40:04.611Z,101971.20
2018-10-18T07:42:33.220Z,101969.85
2018-10-18T07:45:01.808Z,101973.81
2018-10-18T07:47:30.433Z,101975.19
2018-10-18T07:49:59.016Z,101978.33
2018-10-18T07:52:27.604Z,101982.30
2018-10-18T07:54:56.221Z,101980.41
2018-10-18T07:57:24.811Z,101983.95
2018-10-18T07:59:53.504Z,101983.31
2018-10-18T08:02:22.058Z,101976.84
2018-10-18T08:04:50.696Z,101983.18
2018-10-18T08:07:19.290Z,101990.58
2018-10-18T08:09:47.930Z,101994.03
2018-10-18T08:12:16.525Z,101999.95
2018-10-18T08:14:45.181Z,101998.44
2018-10-18T08:17:14.033Z,101998.19
2018-10-18T08:19:42.675Z,101999.11
2018-10-18T08:22:11.296Z,101993.61
2018-10-18T08:24:39.905Z,101994.70
2018-10-18T08:27:08.527Z,101999.80
2018-10-18T08:29:37.206Z,101998.12
2018-10-18T08:32:05.986Z,101996.22
2018-10-18T08:34:34.589Z,101993.38
2018-10-18T08:37:03.191Z,101988.30
2018-10-18T08:39:31.832Z,101987.71
2018-10-18T08:42:00.446Z,101994.84
2018-10-18T08:44:29.104Z,101992.58
2018-10-18T08:46:57.794Z,101992.32
2018-10-18T08:49:26.380Z,101990.41
2018-10-18T08:51:54.950Z,101990.77
2018-10-18T08:54:23.645Z,101991.16
2018-10-18T08:56:52.243Z,101997.38
2018-10-18T08:59:20.906Z,101993.08
2018-10-18T09:01:49.481Z,101996.45
2018-10-18T09:04:18.134Z,101999.55
2018-10-18T09:06:46.742Z,101993.08
2018-10-18T09:09:15.372Z,101991.89
2018-10-18T09:11:43.965Z,101990.42
2018-10-18T09:14:12.541Z,101990.81
2018-10-18T09:16:41.132Z,101993.08
2018-10-18T09:19:09.714Z,101997.86
2018-10-18T09:21:38.349Z,101999.55
2018-10-18T09:24:06.982Z,101995.78
2018-10-18T09:26:35.585Z,102011.97
2018-10-18T09:29:04.180Z,102010.16
2018-10-18T09:31:32.791Z,102010.38
2018-10-18T09:34:01.364Z,102015.73
2018-10-18T09:36:29.990Z,102020.27
2018-10-18T09:38:58.599Z,102020.67
2018-10-18T09:41:27.259Z,102019.02
2018-10-18T09:44:04.480Z,102023.50
2018-10-18T09:46:34.287Z,102023.98
2018-10-18T09:49:03.647Z,102026.15
2018-10-18T09:51:32.261Z,102019.08
2018-10-18T09:54:02.035Z,102031.38
2018-10-18T09:56:31.487Z,102030.28
2018-10-18T09:59:00.116Z,102030.37
2018-10-18T10:01:34.097Z,102040.44
2018-10-18T10:04:02.721Z,102034.09
2018-10-18T10:06:31.324Z,102033.75
2018-10-18T10:08:59.935Z,102041.41
2018-10-18T10:11:28.555Z,102043.41
2018-10-18T10:13:57.174Z,102035.53
2018-10-18T10:16:25.768Z,102034.59
2018-10-18T10:18:54.438Z,102040.76
2018-10-18T10:21:23.014Z,102042.12
2018-10-18T10:23:51.612Z,102043.51
2018-10-18T10:26:20.203Z,102045.22
2018-10-18T10:28:48.810Z,102040.92
2018-10-18T10:31:17.449Z,102040.52
2018-10-18T10:33:46.067Z,102042.81
2018-10-18T10:36:14.653Z,102034.56
2018-10-18T10:38:43.284Z,102036.34
2018-10-18T10:41:11.883Z,102039.44
2018-10-18T10:43:40.507Z,102037.73
2018-10-18T10:46:09.146Z,102044.39
2018-10-18T10:48:37.738Z,102047.25
2018-10-18T10:51:06.347Z,102044.83
2018-10-18T10:53:34.983Z,102047.43
2018-10-18T10:56:03.611Z,102046.25
2018-10-18T10:58:32.230Z,102042.84
2018-10-18T11:01:14.868Z,102045.98
2018-10-18T11:03:43.892Z,102040.51
2018-10-18T11:06:12.840Z,102043.89
2018-10-18T11:08:41.464Z,102047.48
2018-10-18T11:11:10.490Z,102041.32
2018-10-18T11:13:39.918Z,102049.92
2018-10-18T11:16:08.856Z,102047.64
2018-10-18T11:18:38.357Z,102045.22
2018-10-18T11:21:08.273Z,102044.63
2018-10-18T11:23:36.914Z,102044.11
2018-10-18T11:26:05.851Z,102045.17
2018-10-18T11:28:34.457Z,102047.63
2018-10-18T11:31:03.139Z,102044.41
2018-10-18T11:33:31.860Z,102048.77
2018-10-18T11:36:00.514Z,102054.19
2018-10-18T11:38:29.155Z,102055.44
2018-10-18T11:40:57.793Z,102041.76
2018-10-18T11:43:26.403Z,102049.08
2018-10-18T11:45:55.015Z,102045.67
2018-10-18T11:48:23.607Z,102047.59
2018-10-18T11:50:52.214Z,102044.72
2018-10-18T11:53:20.815Z,102047.17
2018-10-18T11:55:49.444Z,102042.80
2018-10-18T11:58:18.030Z,102041.23
2018-10-18T12:00:46.675Z,102040.81
2018-10-18T12:03:15.266Z,102041.42
2018-10-18T12:05:43.898Z,102040.39
2018-10-18T12:08:12.596Z,102040.05
2018-10-18T12:10:41.176Z,102037.70
2018-10-18T12:13:09.778Z,102032.59
2018-10-18T12:15:38.411Z,102037.48
2018-10-18T12:18:07.049Z,102035.72
2018-10-18T12:20:35.673Z,102042.19
2018-10-18T12:23:04.335Z,102040.58
2018-10-18T12:25:32.957Z,102049.50
2018-10-18T12:28:01.544Z,102049.47
2018-10-18T12:30:30.140Z,102045.20
2018-10-18T12:32:58.762Z,102050.00
2018-10-18T12:35:27.375Z,102050.41
2018-10-18T12:37:56.079Z,102053.48
2018-10-18T12:40:24.745Z,102042.91
2018-10-18T12:42:53.372Z,102047.48
2018-10-18T12:45:21.962Z,102056.48
2018-10-18T12:47:50.601Z,102050.19
2018-10-18T12:50:19.202Z,102050.37
2018-10-18T12:52:47.823Z,102055.34
2018-10-18T12:55:16.427Z,102049.53
2018-10-18T12:57:45.062Z,102053.48
2018-10-18T13:00:13.794Z,102054.68
2018-10-18T13:02:42.391Z,102062.14
2018-10-18T13:05:11.784Z,102055.88
2018-10-18T13:07:40.443Z,102060.30
2018-10-18T13:10:11.127Z,102062.45
2018-10-18T13:12:39.939Z,102065.11
2018-10-18T13:15:09.979Z,102063.51
2018-10-18T13:17:38.690Z,102069.14
2018-10-18T13:20:08.315Z,102064.69
2018-10-18T13:22:37.048Z,102070.70
2018-10-18T13:25:07.239Z,102069.41
2018-10-18T13:27:36.070Z,102072.72
2018-10-18T13:30:05.053Z,102077.14
2018-10-18T13:32:33.729Z,102082.19
2018-10-18T13:35:02.338Z,102086.22
2018-10-18T13:37:30.995Z,102085.06
2018-10-18T13:39:59.579Z,102090.78
2018-10-18T13:42:28.211Z,102084.44
2018-10-18T13:44:56.808Z,102079.61
2018-10-18T13:47:25.435Z,102077.05
2018-10-18T13:49:54.062Z,102082.39
2018-10-18T13:52:22.700Z,102084.17
2018-10-18T13:54:51.321Z,102084.66
2018-10-18T13:57:19.925Z,102090.51
2018-10-18T13:59:59.835Z,102092.03
2018-10-18T14:02:28.398Z,102093.70
2018-10-18T14:04:57.029Z,102098.00
2018-10-18T14:07:27.772Z,102103.45
2018-10-18T14:09:57.186Z,102109.69
2018-10-18T14:12:27.868Z,102114.16
2018-10-18T14:14:57.488Z,102113.96
2018-10-18T14:17:27.158Z,102114.36
2018-10-18T14:19:57.244Z,102111.95
2018-10-18T14:22:26.839Z,102111.42
2018-10-18T14:24:56.339Z,102111.42
2018-10-18T14:27:25.721Z,102108.09
2018-10-18T14:29:55.237Z,102106.92
2018-10-18T14:32:24.671Z,102112.92
2018-10-18T14:34:54.246Z,102112.07
2018-10-18T14:37:24.573Z,102113.45
2018-10-18T14:39:53.259Z,102112.07
2018-10-18T14:42:21.875Z,102113.20
2018-10-18T14:44:51.383Z,102116.03
2018-10-18T14:47:21.471Z,102113.80
2018-10-18T14:49:50.099Z,102114.52
2018-10-18T14:52:18.725Z,102116.94
2018-10-18T14:54:47.367Z,102117.27
2018-10-18T14:57:16.544Z,102116.66
2018-10-18T14:59:45.213Z,102120.22
2018-10-18T15:02:14.072Z,102115.09
2018-10-18T15:04:42.841Z,102122.69
2018-10-18T15:07:11.352Z,102121.67
2018-10-18T15:09:40.015Z,102121.50
2018-10-18T15:12:09.282Z,102132.94
2018-10-18T15:14:37.904Z,102132.20
2018-10-18T15:17:06.563Z,102128.37
2018-10-18T15:19:35.206Z,102137.55
2018-10-18T15:22:03.838Z,102137.66
2018-10-18T15:24:32.754Z,102142.51
2018-10-18T15:27:01.609Z,102147.05
2018-10-18T15:29:30.027Z,102137.34
2018-10-18T15:31:58.764Z,102139.65
2018-10-18T15:34:27.327Z,102140.58
2018-10-18T15:36:55.938Z,102143.69
2018-10-18T15:39:24.600Z,102147.16
2018-10-18T15:41:53.210Z,102142.73
2018-10-18T15:44:21.841Z,102145.52
2018-10-18T15:46:50.460Z,102149.34
2018-10-18T15:49:19.054Z,102148.89
2018-10-18T15:51:47.697Z,102149.63
2018-10-18T15:54:16.346Z,102152.56
2018-10-18T15:56:44.966Z,102154.85
2018-10-18T15:59:13.613Z,102156.81
2018-10-18T16:01:42.233Z,102163.53
2018-10-18T16:04:10.829Z,102160.82
2018-10-18T16:06:39.468Z,102164.14
2018-10-18T16:09:11.373Z,102169.50
2018-10-18T16:11:40.016Z,102178.77
2018-10-18T16:14:08.713Z,102187.69
2018-10-18T16:16:37.270Z,102186.34
2018-10-18T16:19:06.506Z,102189.77
2018-10-18T16:21:35.152Z,102189.93
2018-10-18T16:24:03.806Z,102197.29
2018-10-18T16:26:32.464Z,102196.11
2018-10-18T16:29:01.187Z,102202.78
2018-10-18T16:31:30.360Z,102205.87
2018-10-18T16:33:58.996Z,102205.23
2018-10-18T16:36:27.640Z,102204.21
2018-10-18T16:38:56.329Z,102210.20
2018-10-18T16:41:25.155Z,102212.59
2018-10-18T16:43:53.638Z,102212.95
2018-10-18T16:46:22.230Z,102212.64
2018-10-18T16:48:50.867Z,102220.36
2018-10-18T16:51:19.467Z,102229.25
2018-10-18T16:53:48.107Z,102228.59
2018-10-18T16:56:16.825Z,102233.03
2018-10-18T16:58:45.427Z,102229.80
2018-10-18T17:01:14.013Z,102236.47
2018-10-18T17:03:42.651Z,102233.89
2018-10-18T17:06:11.346Z,102236.48
2018-10-18T17:08:39.923Z,102241.41
2018-10-18T17:11:08.583Z,102245.70
2018-10-18T17:13:37.174Z,102244.66
2018-10-18T17:16:06.156Z,102243.75
2018-10-18T17:18:34.761Z,102243.41
2018-10-18T17:21:03.433Z,102249.67
2018-10-18T17:23:32.121Z,102254.27
2018-10-18T17:26:00.727Z,102252.88
2018-10-18T17:28:29.331Z,102253.38
2018-10-18T17:30:57.957Z,102255.92
2018-10-18T17:33:26.574Z,102257.61
2018-10-18T17:35:55.237Z,102263.57
2018-10-18T17:38:23.867Z,102262.34
2018-10-18T17:40:52.512Z,102265.55
2018-10-18T17:43:21.130Z,102268.91
2018-10-18T17:45:49.754Z,102271.40
2018-10-18T17:48:18.404Z,102281.40
2018-10-18T17:50:47.050Z,102281.78
2018-10-18T17:53:15.700Z,102283.66
2018-10-18T17:55:44.326Z,102288.92
2018-10-18T17:58:12.966Z,102291.86
2018-10-18T18:00:41.620Z,102292.56
2018-10-18T18:03:10.226Z,102305.08
2018-10-18T18:05:38.838Z,102309.47
2018-10-18T18:08:07.551Z,102303.13
2018-10-18T18:10:36.109Z,102300.37
2018-10-18T18:13:04.776Z,102311.56
2018-10-18T18:15:33.419Z,102311.65
2018-10-18T18:18:02.054Z,102315.13
2018-10-18T18:20:30.662Z,102315.53
2018-10-18T18:22:59.308Z,102315.38
2018-10-18T18:25:27.922Z,102316.48
2018-10-18T18:27:56.521Z,102324.51
2018-10-18T18:30:25.144Z,102325.30
2018-10-18T18:32:53.774Z,102320.27
2018-10-18T18:35:22.368Z,102317.84
2018-10-18T18:37:51.046Z,102324.22
2018-10-18T18:40:19.648Z,102335.88
2018-10-18T18:42:48.262Z,102323.75
2018-10-18T18:45:23.585Z,102337.19
2018-10-18T18:47:52.273Z,102332.95
2018-10-18T18:50:20.845Z,102340.83
2018-10-18T18:52:49.486Z,102333.17
2018-10-18T18:55:18.057Z,102339.66
2018-10-18T18:57:46.665Z,102336.84
2018-10-18T19:00:15.292Z,102336.19
2018-10-18T19:02:43.902Z,102343.81
2018-10-18T19:05:12.521Z,102352.84
2018-10-18T19:07:41.132Z,102362.27
2018-10-18T19:10:09.907Z,102365.83
2018-10-18T19:12:38.514Z,102354.86
2018-10-18T19:15:08.520Z,102366.69
2018-10-18T19:17:37.578Z,102366.72
2018-10-18T19:20:06.403Z,102371.23
2018-10-18T19:22:35.004Z,102370.56
2018-10-18T19:25:03.669Z,102378.27
2018-10-18T19:27:32.241Z,102380.91
2018-10-18T19:30:00.846Z,102380.00
2018-10-18T19:32:29.448Z,102383.38
2018-10-18T19:34:58.050Z,102384.49
2018-10-18T19:37:26.639Z,102382.80
2018-10-18T19:39:55.238Z,102378.36
2018-10-18T19:42:23.947Z,102378.27
2018-10-18T19:44:52.546Z,102373.56
2018-10-18T19:47:21.140Z,102374.04
2018-10-18T19:49:49.755Z,102382.00
2018-10-18T19:52:18.408Z,102380.09
2018-10-18T19:54:46.999Z,102382.02
2018-10-18T19:57:15.582Z,102381.00
2018-10-18T19:59:44.182Z,102377.55
2018-10-18T20:02:12.863Z,102373.32
2018-10-18T20:04:41.427Z,102386.52
2018-10-18T20:07:10.038Z,102392.09
2018-10-18T20:09:38.676Z,102393.86
2018-10-18T20:12:07.368Z,102387.05
2018-10-18T20:14:35.940Z,102380.53
2018-10-18T20:17:04.583Z,102391.88
2018-10-18T20:19:33.149Z,102385.77
2018-10-18T20:22:01.746Z,102392.29
2018-10-18T20:24:30.352Z,102394.78
2018-10-18T20:26:58.978Z,102394.30
2018-10-18T20:29:27.671Z,102391.02
2018-10-18T20:31:56.313Z,102388.45
2018-10-18T20:34:24.903Z,102400.28
2018-10-18T20:36:54.304Z,102400.39
2018-10-18T20:39:24.161Z,102403.95
2018-10-18T20:41:52.784Z,102405.91
2018-10-18T20:44:21.388Z,102415.67
2018-10-18T20:46:50.102Z,102407.33
2018-10-18T20:49:18.808Z,102410.80
2018-10-18T20:51:47.400Z,102401.70
2018-10-18T20:54:16.103Z,102414.51
2018-10-18T20:56:44.667Z,102410.06
2018-10-18T20:59:13.265Z,102404.55
2018-10-18T21:01:41.881Z,102408.97
2018-10-18T21:04:10.454Z,102419.04
2018-10-18T21:06:39.227Z,102424.70
2018-10-18T21:09:09.804Z,102429.23
2018-10-18T21:11:38.435Z,102430.70
2018-10-18T21:14:07.088Z,102429.34
2018-10-18T21:16:35.682Z,102435.03
2018-10-18T21:19:04.439Z,102429.87
2018-10-18T21:21:33.545Z,102434.06
2018-10-18T21:24:02.147Z,102427.19
2018-10-18T21:26:30.786Z,102429.87
2018-10-18T21:28:59.469Z,102429.00
2018-10-18T21:31:28.030Z,102429.39
2018-10-18T21:33:56.654Z,102421.28
2018-10-18T21:36:25.250Z,102429.13
2018-10-18T21:38:53.938Z,102431.48
2018-10-18T21:41:22.588Z,102429.00
2018-10-18T21:43:51.206Z,102428.62
2018-10-18T21:46:19.844Z,102435.15
2018-10-18T21:48:48.489Z,102430.83
2018-10-18T21:51:17.174Z,102432.66
2018-10-18T21:53:45.756Z,102435.23
2018-10-18T21:56:14.355Z,102429.42
2018-10-18T21:58:42.967Z,102439.70
2018-10-18T22:01:11.586Z,102439.84
2018-10-18T22:03:40.210Z,102438.81
2018-10-18T22:06:08.816Z,102436.34
2018-10-18T22:08:37.424Z,102437.56
2018-10-18T22:11:06.201Z,102437.78
2018-10-18T22:13:34.872Z,102437.06
2018-10-18T22:16:03.464Z,102431.76
2018-10-18T22:18:32.085Z,102438.01
2018-10-18T22:21:00.725Z,102438.99
2018-10-18T22:23:29.343Z,102438.64
2018-10-18T22:25:57.971Z,102439.72
2018-10-18T22:28:26.595Z,102434.68
2018-10-18T22:30:55.189Z,102437.83
2018-10-18T22:33:23.810Z,102436.48
2018-10-18T22:35:52.409Z,102441.42
2018-10-18T22:38:21.063Z,102435.12
2018-10-18T22:40:49.654Z,102438.95
2018-10-18T22:43:18.295Z,102433.28
2018-10-18T22:45:52.177Z,102439.34
2018-10-18T22:48:20.802Z,102437.56
2018-10-18T22:50:49.382Z,102436.31
2018-10-18T22:53:17.976Z,102439.72
2018-10-18T22:55:46.595Z,102437.73
2018-10-18T22:58:15.205Z,102439.08
2018-10-18T23:00:49.039Z,102434.95
2018-10-18T23:03:19.155Z,102439.48
2018-10-18T23:05:48.414Z,102439.08
2018-10-18T23:08:17.040Z,102435.61
2018-10-18T23:10:46.122Z,102437.88
2018-10-18T23:13:14.725Z,102437.00
2018-10-18T23:15:43.356Z,102437.71
2018-10-18T23:18:12.331Z,102440.50
2018-10-18T23:20:41.554Z,102439.55
2018-10-18T23:23:10.948Z,102440.90
2018-10-18T23:25:39.889Z,102433.98
2018-10-18T23:28:08.530Z,102433.39
2018-10-18T23:30:37.138Z,102432.63
2018-10-18T23:33:05.788Z,102429.20
2018-10-18T23:35:34.435Z,102422.19
2018-10-18T23:38:03.043Z,102428.92
2018-10-18T23:40:31.657Z,102426.87
2018-10-18T23:43:00.258Z,102422.68
2018-10-18T23:45:28.880Z,102422.53
2018-10-18T23:47:57.469Z,102416.98
2018-10-18T23:50:26.086Z,102418.68
2018-10-18T23:52:54.718Z,102414.45
2018-10-18T23:55:23.317Z,102403.86
2018-10-18T23:57:51.907Z,102408.12
